IZ5SIH Siena IT current weather conditions

sailwx.info

Wind from 315

Air temperature 20.6° C
Dewpoint 15.5° C

Last reported at 2020-Aug-06 22:51 UTC.
Time now 2020-Aug-07 00:58 UTC

Location: N 43°11' E 011°47'.
View on Google Maps.

See reports from other nearby stations

  
Tides and Currents Weather Stations Pressure Air Temp Water Temp Dewpoint Dewpoint Depression Visibility Wind Speed Wind Dir Waves Ship Positions
date/time (UTC)wind fromknots sea level pressurealtimeterstation pressurevisibilityair tempwater tempwave heightnotes
2020-Aug-06 22:51 315 20.6
2020-Aug-06 20:11 360 5 gusting 8 22.2
2020-Aug-06 18:41 360 5 gusting 9 24.4
2020-Aug-06 18:21 022 5 gusting 9 25.0
2020-Aug-06 17:51 022 5 gusting 7 26.1
2020-Aug-06 17:31 045 8 gusting 13 26.7
2020-Aug-06 17:01 045 8 gusting 14 27.2
2020-Aug-06 16:31 022 5 gusting 10 28.3
2020-Aug-06 16:11 360 6 gusting 13 28.3
2020-Aug-06 16:01 337 4 gusting 8 28.3
2020-Aug-06 15:11 022 6 gusting 11 27.2
2020-Aug-06 15:01 022 6 gusting 11 28.3
2020-Aug-06 14:31 022 7 gusting 13 28.9
2020-Aug-06 13:31 022 8 gusting 14 27.8
2020-Aug-06 13:01 337 7 gusting 14 27.8
2020-Aug-06 11:31 337 8 gusting 13 26.7
2020-Aug-06 10:51 315 7 gusting 13 25.6
2020-Aug-06 07:51 315 10 gusting 16 23.3
2020-Aug-06 07:41 315 6 gusting 14 22.8
2020-Aug-06 07:31 360 4 gusting 10 22.2
2020-Aug-06 06:11 16.7
2020-Aug-06 05:01 14.4
2020-Aug-06 03:41 270 0 gusting 3 14.4
2020-Aug-05 22:21 17.8
2020-Aug-05 20:21 337 0 gusting 6 20.0
2020-Aug-05 19:11 360 21.1
2020-Aug-05 18:51 022 0 gusting 5 21.7
2020-Aug-05 18:21 022 0 gusting 6 22.2
2020-Aug-05 17:31 022 4 gusting 11 22.8
2020-Aug-05 17:11 022 5 gusting 12 23.9
2020-Aug-05 16:01 360 6 gusting 13 26.1
2020-Aug-05 15:41 360 7 gusting 12 26.1
2020-Aug-05 15:11 022 7 gusting 15 26.1
2020-Aug-05 13:11 337 6 gusting 13 27.2
2020-Aug-05 10:51 045 3 gusting 9 26.7
2020-Aug-05 10:31 360 4 gusting 9 25.6
2020-Aug-05 09:01 022 11 gusting 18 24.4
2020-Aug-05 08:51 022 6 gusting 13 23.9
2020-Aug-05 08:41 022 7 gusting 12 23.3
2020-Aug-05 08:31 360 6 gusting 13 23.3
2020-Aug-05 07:51 315 6 gusting 11 21.7
2020-Aug-05 06:51 315 6 gusting 9 19.4
2020-Aug-05 06:41 315 6 gusting 9 19.4
2020-Aug-05 06:21 315 5 gusting 8 18.3
2020-Aug-05 05:51 292 0 gusting 6 17.8
2020-Aug-05 04:11 247 0 gusting 2 15.6
2020-Aug-05 03:01 315 16.1
2020-Aug-05 01:21 16.1
2020-Aug-05 01:01 16.1